Time;durP1;ratioP1;P1;durP2;ratioP2;P2;SDS_P1;SDS_P2;PMS_P1;PMS_P2;Temp;Humidity;BMP_temperature;BMP_pressure;BME280_temperature;BME280_humidity;BME280_pressure;Samples;Min_cycle;Max_cycle;Signal;HPM_P1;HPM_P2
2022/12/13 00:01:51;;;;;;;46.27;21.43;;;-4.10;99.90;;;;;;5099027;28;20031;-73
2022/12/13 00:04:18;;;;;;;44.73;21.80;;;-4.10;99.90;;;;;;5105306;27;20102;-73
2022/12/13 00:06:44;;;;;;;48.37;22.13;;;-4.10;99.90;;;;;;5104580;27;20031;-73
2022/12/13 00:09:12;;;;;;;43.17;21.40;;;-4.10;99.90;;;;;;5095025;27;20527;-72
2022/12/13 00:11:37;;;;;;;46.27;21.73;;;-4.10;99.90;;;;;;5101715;27;20118;-73
2022/12/13 00:14:03;;;;;;;46.70;22.27;;;-4.10;99.90;;;;;;5096591;28;20122;-73
2022/12/13 00:16:28;;;;;;;44.37;20.83;;;-4.10;99.90;;;;;;5107157;27;20057;-73
2022/12/13 00:18:57;;;;;;;44.90;20.87;;;-4.20;99.90;;;;;;5104822;28;20035;-74
2022/12/13 00:21:25;;;;;;;45.30;21.43;;;-4.20;99.90;;;;;;5106091;27;20122;-73
2022/12/13 00:23:52;;;;;;;45.57;20.27;;;-4.20;99.90;;;;;;5109769;27;20035;-72
2022/12/13 00:26:29;;;;;;;43.73;19.77;;;-4.20;99.90;;;;;;5082060;27;20043;-73
2022/12/13 00:28:55;;;;;;;41.53;19.30;;;-4.20;99.90;;;;;;5100886;28;20054;-73
2022/12/13 00:31:22;;;;;;;45.57;21.03;;;-4.30;99.90;;;;;;5099731;27;20047;-73
2022/12/13 00:33:48;;;;;;;39.87;19.33;;;-4.30;99.90;;;;;;5111603;27;20438;-73
2022/12/13 00:36:14;;;;;;;42.20;20.20;;;-4.30;99.90;;;;;;5104226;27;20028;-73
2022/12/13 00:38:40;;;;;;;40.90;19.60;;;-4.30;99.90;;;;;;5109716;28;20085;-73
2022/12/13 00:41:14;;;;;;;45.10;21.13;;;-4.30;99.90;;;;;;5111348;27;20135;-73
2022/12/13 00:43:40;;;;;;;46.47;22.30;;;-4.30;99.90;;;;;;5108285;27;20147;-73
2022/12/13 00:46:15;;;;;;;38.00;18.27;;;-4.40;99.90;;;;;;5109197;27;20513;-72
2022/12/13 00:48:43;;;;;;;43.50;20.70;;;-4.40;99.90;;;;;;5108027;27;20063;-73
2022/12/13 00:51:10;;;;;;;42.93;19.87;;;-4.40;99.90;;;;;;5103030;28;20520;-73
2022/12/13 00:53:37;;;;;;;42.63;18.87;;;-4.40;99.90;;;;;;5110252;27;20039;-73
2022/12/13 00:56:03;;;;;;;38.50;20.40;;;-4.50;99.90;;;;;;5105367;27;20031;-72
2022/12/13 00:58:28;;;;;;;38.70;19.30;;;-4.50;99.90;;;;;;5095454;27;20027;-73
2022/12/13 01:01:06;;;;;;;41.90;20.10;;;-4.50;99.90;;;;;;5102335;27;20037;-73
2022/12/13 01:03:31;;;;;;;41.13;20.67;;;-4.50;99.90;;;;;;5105218;27;20039;-72
2022/12/13 01:05:57;;;;;;;41.43;19.83;;;-4.40;99.90;;;;;;5107880;27;20053;-73
2022/12/13 01:08:23;;;;;;;43.60;20.60;;;-4.50;99.90;;;;;;5107493;27;20032;-73
2022/12/13 01:10:48;;;;;;;39.37;19.57;;;-4.50;99.90;;;;;;5089816;27;20137;-72
2022/12/13 01:13:14;;;;;;;42.50;20.30;;;-4.40;99.90;;;;;;5108097;27;20110;-73
2022/12/13 01:15:45;;;;;;;42.17;19.83;;;-4.40;99.90;;;;;;5092239;27;20054;-73
2022/12/13 01:18:12;;;;;;;39.30;18.87;;;-4.50;99.90;;;;;;5108127;27;20039;-73
2022/12/13 01:20:38;;;;;;;35.40;17.43;;;-4.50;99.90;;;;;;5112374;27;20034;-73
2022/12/13 01:23:05;;;;;;;38.73;19.13;;;-4.50;99.90;;;;;;5110648;27;20042;-73
2022/12/13 01:25:32;;;;;;;39.30;19.47;;;-4.50;99.90;;;;;;5099322;27;20095;-72
2022/12/13 01:27:59;;;;;;;36.90;18.80;;;-4.50;99.90;;;;;;5078460;28;20036;-73
2022/12/13 01:30:24;;;;;;;38.43;19.33;;;-4.60;99.90;;;;;;5088066;27;20109;-72
2022/12/13 01:32:50;;;;;;;41.77;18.93;;;-4.60;99.90;;;;;;5106109;27;20157;-73
2022/12/13 01:35:16;;;;;;;41.63;20.23;;;-4.60;99.90;;;;;;5103722;27;20027;-72
2022/12/13 01:37:41;;;;;;;37.80;19.17;;;-4.60;99.90;;;;;;5094568;28;20039;-72
2022/12/13 01:40:08;;;;;;;40.40;19.10;;;-4.60;99.90;;;;;;5103905;27;20035;-73
2022/12/13 01:42:37;;;;;;;40.33;19.40;;;-4.70;99.90;;;;;;5096380;27;20031;-72
2022/12/13 01:45:32;;;;;;;39.93;17.60;;;-4.70;99.90;;;;;;5099528;28;20083;-72
2022/12/13 01:48:02;;;;;;;35.23;18.33;;;-4.70;99.90;;;;;;5085326;27;20050;-72
2022/12/13 01:50:33;;;;;;;33.57;16.97;;;-4.80;99.90;;;;;;5108656;27;20035;-72
2022/12/13 01:52:59;;;;;;;33.57;18.43;;;-4.80;99.90;;;;;;5108302;28;20076;-72
2022/12/13 01:55:28;;;;;;;38.43;19.17;;;-4.80;99.90;;;;;;5085754;27;20096;-72
2022/12/13 01:57:56;;;;;;;39.50;19.63;;;-4.80;99.90;;;;;;5112608;27;20045;-72
2022/12/13 02:00:24;;;;;;;39.63;18.70;;;-4.80;99.90;;;;;;5106709;27;20357;-72
2022/12/13 02:02:50;;;;;;;40.73;19.37;;;-4.80;99.90;;;;;;5102686;27;20039;-72
2022/12/13 02:05:34;;;;;;;38.47;18.77;;;-4.90;99.90;;;;;;5096018;27;20416;-72
2022/12/13 02:08:01;;;;;;;36.10;17.20;;;-4.80;99.90;;;;;;5099482;27;20069;-72
2022/12/13 02:10:28;;;;;;;37.60;18.70;;;-4.90;99.90;;;;;;5108086;27;20553;-72
2022/12/13 02:12:54;;;;;;;37.83;18.20;;;-4.90;99.90;;;;;;5103993;28;20396;-72
2022/12/13 02:15:21;;;;;;;39.97;19.87;;;-4.90;99.90;;;;;;5103879;28;20031;-72
2022/12/13 02:18:12;;;;;;;37.77;17.73;;;-4.90;99.90;;;;;;5109499;28;20035;-72
2022/12/13 02:20:57;;;;;;;35.27;17.07;;;-4.90;99.90;;;;;;5109097;28;20035;-72
2022/12/13 02:23:51;;;;;;;35.83;17.87;;;-4.90;99.90;;;;;;5110231;28;20049;-72
2022/12/13 02:26:44;;;;;;;38.15;18.10;;;-5.00;99.90;;;;;;5102003;28;20047;-72
2022/12/13 02:29:19;;;;;;;31.70;17.33;;;-5.00;99.90;;;;;;5109925;28;20500;-72
2022/12/13 02:32:12;;;;;;;34.33;16.53;;;-5.00;99.90;;;;;;5104957;28;20042;-72
2022/12/13 02:35:02;;;;;;;33.38;17.60;;;-5.00;99.90;;;;;;5102623;28;20113;-72
2022/12/13 02:37:55;;;;;;;34.57;17.03;;;-5.00;99.90;;;;;;5088201;28;20035;-72
2022/12/13 02:40:49;;;;;;;42.23;18.67;;;-5.00;99.90;;;;;;5103899;28;20047;-71
2022/12/13 02:43:34;;;;;;;37.40;18.33;;;-5.10;99.90;;;;;;5102966;28;20050;-72
2022/12/13 02:46:02;;;;;;;35.60;17.90;;;-5.10;99.90;;;;;;5109691;28;20031;-72
2022/12/13 02:48:31;;;;;;;38.57;19.73;;;-5.10;99.90;;;;;;5086897;28;20047;-72
2022/12/13 02:50:59;;;;;;;37.77;18.00;;;-5.10;99.90;;;;;;5103763;27;20043;-72
2022/12/13 02:53:25;;;;;;;37.53;17.63;;;-5.10;99.90;;;;;;5093928;27;20408;-72
2022/12/13 02:55:51;;;;;;;37.33;17.53;;;-5.10;99.90;;;;;;5109334;27;20039;-72
2022/12/13 02:58:22;;;;;;;39.90;19.67;;;-5.20;99.90;;;;;;5127976;27;20107;-72
2022/12/13 03:01:06;;;;;;;32.90;17.60;;;-5.20;99.90;;;;;;5108509;27;20027;-72
2022/12/13 03:03:31;;;;;;;34.30;17.98;;;-5.10;99.90;;;;;;5109012;27;20460;-71
2022/12/13 03:06:30;;;;;;;42.67;19.47;;;-5.20;99.90;;;;;;5132000;27;20046;-71
2022/12/13 03:09:07;;;;;;;39.77;19.03;;;-5.20;99.90;;;;;;5111053;27;20115;-72
2022/12/13 03:14:25;;;;;;;37.43;18.33;;;-5.20;99.90;;;;;;5107553;27;20480;-71
2022/12/13 03:16:53;;;;;;;40.17;18.90;;;-5.20;99.90;;;;;;5117132;27;20039;-71
2022/12/13 03:19:19;;;;;;;36.17;17.83;;;-5.20;99.90;;;;;;5111302;27;20073;-72
2022/12/13 03:21:46;;;;;;;43.30;20.10;;;-5.20;99.90;;;;;;5114197;27;20035;-71
2022/12/13 03:24:12;;;;;;;40.00;19.23;;;-5.20;99.90;;;;;;5113972;27;20088;-71
2022/12/13 03:26:39;;;;;;;39.50;19.20;;;-5.20;99.90;;;;;;5112852;27;20040;-71
2022/12/13 03:29:05;;;;;;;41.53;19.13;;;-5.30;99.90;;;;;;5106757;27;20051;-72
2022/12/13 03:31:31;;;;;;;37.20;19.07;;;-5.30;99.90;;;;;;5113094;27;20123;-72
2022/12/13 03:33:57;;;;;;;37.47;18.00;;;-5.20;99.90;;;;;;5112466;27;20607;-72
2022/12/13 03:36:23;;;;;;;35.20;18.57;;;-5.30;99.90;;;;;;5112915;27;20096;-71
2022/12/13 03:38:51;;;;;;;37.30;19.00;;;-5.30;99.90;;;;;;5113662;27;20031;-71
2022/12/13 03:41:20;;;;;;;36.83;18.83;;;-5.30;99.90;;;;;;5112375;27;20071;-71
2022/12/13 03:43:46;;;;;;;37.07;17.80;;;-5.30;99.90;;;;;;5110270;28;20092;-71
2022/12/13 03:46:12;;;;;;;36.80;18.67;;;-5.30;99.90;;;;;;5107597;27;20492;-71
2022/12/13 03:48:37;;;;;;;32.90;17.80;;;-5.30;99.90;;;;;;5109078;27;20039;-71
2022/12/13 03:51:03;;;;;;;37.97;18.20;;;-5.30;99.90;;;;;;5132663;27;20201;-71
2022/12/13 03:53:30;;;;;;;43.50;19.07;;;-5.30;99.90;;;;;;5113178;27;20111;-72
2022/12/13 03:55:55;;;;;;;39.50;18.93;;;-5.30;99.90;;;;;;5085776;27;20500;-71
2022/12/13 03:58:21;;;;;;;35.43;17.47;;;-5.30;99.90;;;;;;5107270;27;20067;-71
2022/12/13 04:00:48;;;;;;;37.23;19.23;;;-5.30;99.90;;;;;;5114401;28;20393;-72
2022/12/13 04:03:14;;;;;;;37.20;18.37;;;-5.40;99.90;;;;;;5102823;27;20106;-71
2022/12/13 04:05:40;;;;;;;37.80;18.60;;;-5.30;99.90;;;;;;5109205;27;20396;-71
2022/12/13 04:08:06;;;;;;;37.27;17.83;;;-5.40;99.90;;;;;;5108246;27;20039;-72
2022/12/13 04:10:31;;;;;;;33.27;17.43;;;-5.40;99.90;;;;;;5113834;27;20011;-70
2022/12/13 04:15:47;;;;;;;;;;;-5.40;99.90;;;;;;5117527;27;20118;-72
2022/12/13 04:18:17;;;;;;;39.83;18.97;;;-5.40;99.90;;;;;;5107709;27;19923;-70
2022/12/13 04:20:43;;;;;;;33.57;18.17;;;-5.40;99.90;;;;;;5111214;27;20064;-71
2022/12/13 04:23:09;;;;;;;34.47;18.83;;;-5.40;99.90;;;;;;5112186;27;20042;-71
2022/12/13 04:25:34;;;;;;;34.87;18.77;;;-5.30;99.90;;;;;;5111020;27;20543;-71
2022/12/13 04:28:00;;;;;;;33.90;18.07;;;-5.40;99.90;;;;;;5102772;28;20103;-71
2022/12/13 04:30:25;;;;;;;33.57;17.87;;;-5.30;99.90;;;;;;5104467;27;20561;-71
2022/12/13 04:32:51;;;;;;;36.87;19.07;;;-5.30;99.90;;;;;;5111617;27;20046;-71
2022/12/13 04:35:16;;;;;;;37.60;19.47;;;-5.30;99.90;;;;;;5099997;27;20039;-72
2022/12/13 04:37:42;;;;;;;38.23;18.20;;;-5.30;99.90;;;;;;5111544;28;20125;-71
2022/12/13 04:40:08;;;;;;;35.17;18.03;;;-5.30;99.90;;;;;;5110358;27;20065;-71
2022/12/13 04:42:34;;;;;;;35.47;17.40;;;-5.30;99.90;;;;;;5103001;27;20035;-72
2022/12/13 04:44:59;;;;;;;40.00;19.23;;;-5.30;99.90;;;;;;5102413;27;20409;-71
2022/12/13 04:47:25;;;;;;;36.43;18.07;;;-5.40;99.90;;;;;;5110744;27;20035;-72
2022/12/13 04:49:50;;;;;;;34.63;18.40;;;-5.40;99.90;;;;;;5087439;28;20043;-72
2022/12/13 04:52:16;;;;;;;40.63;18.77;;;-5.40;99.90;;;;;;5110697;27;20035;-71
2022/12/13 04:54:41;;;;;;;40.07;18.60;;;-5.40;99.90;;;;;;5113258;27;20035;-70
2022/12/13 04:57:10;;;;;;;41.17;18.83;;;-5.40;99.90;;;;;;5111143;27;20030;-72
2022/12/13 04:59:36;;;;;;;34.37;19.07;;;-5.40;99.90;;;;;;5106652;27;20459;-71
2022/12/13 05:02:04;;;;;;;35.87;19.40;;;-5.40;99.90;;;;;;5099054;28;20044;-71
2022/12/13 05:04:30;;;;;;;33.37;17.90;;;-5.40;99.90;;;;;;5103940;28;20142;-71
2022/12/13 05:06:56;;;;;;;38.07;20.07;;;-5.40;99.90;;;;;;5098817;28;20099;-71
2022/12/13 05:09:22;;;;;;;37.50;18.93;;;-5.40;99.90;;;;;;5108926;27;20070;-71
2022/12/13 05:11:47;;;;;;;34.77;18.43;;;-5.40;99.90;;;;;;5097362;27;20036;-71
2022/12/13 05:14:13;;;;;;;32.93;18.37;;;-5.40;99.90;;;;;;5125704;27;20039;-71
2022/12/13 05:16:38;;;;;;;32.40;19.17;;;-5.30;99.90;;;;;;5102816;28;20382;-71
2022/12/13 05:19:04;;;;;;;39.73;19.33;;;-5.30;99.90;;;;;;5106120;28;20133;-71
2022/12/13 05:21:29;;;;;;;33.07;18.03;;;-5.30;99.90;;;;;;5112926;27;20046;-71
2022/12/13 05:23:55;;;;;;;37.03;18.03;;;-5.30;99.90;;;;;;5106464;28;20040;-71
2022/12/13 05:26:20;;;;;;;35.63;18.20;;;-5.40;99.90;;;;;;5111211;27;20060;-70
2022/12/13 05:28:46;;;;;;;38.07;19.43;;;-5.40;99.90;;;;;;5084232;28;20066;-71
2022/12/13 05:31:12;;;;;;;35.77;18.33;;;-5.40;99.90;;;;;;5102454;27;20131;-71
2022/12/13 05:33:37;;;;;;;36.10;18.93;;;-5.40;99.90;;;;;;5110580;27;20038;-71
2022/12/13 05:36:04;;;;;;;36.97;18.23;;;-5.40;99.90;;;;;;5107096;27;20487;-71
2022/12/13 05:38:30;;;;;;;37.47;18.70;;;-5.40;99.90;;;;;;5106089;27;20039;-71
2022/12/13 05:40:57;;;;;;;31.67;17.27;;;-5.40;99.90;;;;;;5105161;28;20043;-71
2022/12/13 05:43:23;;;;;;;35.00;18.03;;;-5.50;99.90;;;;;;5105321;27;20493;-71
2022/12/13 05:45:49;;;;;;;36.10;18.00;;;-5.50;99.90;;;;;;5108673;27;20073;-71
2022/12/13 05:48:14;;;;;;;32.80;19.20;;;-5.50;99.90;;;;;;5098603;27;20485;-71
2022/12/13 05:50:40;;;;;;;32.70;18.20;;;-5.50;99.90;;;;;;5103134;27;20045;-71
2022/12/13 05:53:06;;;;;;;35.50;19.13;;;-5.40;99.90;;;;;;5111266;27;20034;-71
2022/12/13 05:55:32;;;;;;;37.80;19.90;;;-5.40;99.90;;;;;;5094692;27;20031;-71
2022/12/13 05:57:58;;;;;;;36.87;19.47;;;-5.40;99.90;;;;;;5107212;27;20385;-70
2022/12/13 06:00:24;;;;;;;37.23;19.03;;;-5.40;99.90;;;;;;5109036;27;20034;-70
2022/12/13 06:02:49;;;;;;;35.77;19.40;;;-5.40;99.90;;;;;;5108513;27;20625;-70
2022/12/13 06:05:15;;;;;;;34.30;18.93;;;-5.40;99.90;;;;;;5099842;27;20042;-71
2022/12/13 06:07:41;;;;;;;34.60;19.37;;;-5.40;99.90;;;;;;5107640;27;20070;-71
2022/12/13 06:10:07;;;;;;;38.37;19.60;;;-5.40;99.90;;;;;;5084559;28;20115;-71
2022/12/13 06:12:37;;;;;;;34.23;17.73;;;-5.50;99.90;;;;;;5106645;28;20171;-71
2022/12/13 06:15:03;;;;;;;36.20;18.83;;;-5.50;99.90;;;;;;5098641;28;20042;-71
2022/12/13 06:17:34;;;;;;;32.73;18.43;;;-5.50;99.90;;;;;;5113145;28;20031;-71
2022/12/13 06:20:00;;;;;;;38.43;19.07;;;-5.50;99.90;;;;;;5109733;28;20035;-71
2022/12/13 06:22:26;;;;;;;35.80;18.73;;;-5.50;99.90;;;;;;5102449;28;20088;-70
2022/12/13 06:24:52;;;;;;;37.40;18.53;;;-5.50;99.90;;;;;;5100195;28;20084;-71
2022/12/13 06:27:19;;;;;;;32.47;17.97;;;-5.50;99.90;;;;;;5097902;28;20051;-70
2022/12/13 06:29:44;;;;;;;33.73;17.97;;;-5.50;99.90;;;;;;5101207;28;20039;-71
2022/12/13 06:32:10;;;;;;;28.93;17.00;;;-5.60;99.90;;;;;;5109528;28;20096;-71
2022/12/13 06:34:36;;;;;;;36.07;19.10;;;-5.60;99.90;;;;;;5109990;28;20032;-71
2022/12/13 06:37:03;;;;;;;35.87;19.27;;;-5.60;99.90;;;;;;5095487;28;20036;-70
2022/12/13 06:39:29;;;;;;;36.33;18.03;;;-5.60;99.90;;;;;;5106272;28;20046;-71
2022/12/13 06:41:55;;;;;;;33.13;18.83;;;-5.60;99.90;;;;;;5106725;28;20404;-71
2022/12/13 06:44:21;;;;;;;40.00;20.17;;;-5.60;99.90;;;;;;5100528;28;20039;-71
2022/12/13 06:46:46;;;;;;;38.90;19.03;;;-5.50;99.90;;;;;;5101777;28;20512;-71
2022/12/13 06:49:12;;;;;;;36.70;19.63;;;-5.50;99.90;;;;;;5102192;28;20600;-70
2022/12/13 06:51:37;;;;;;;34.93;19.07;;;-5.50;99.90;;;;;;5100291;28;20031;-70
2022/12/13 06:54:03;;;;;;;40.23;19.67;;;-5.50;99.90;;;;;;5109569;28;20034;-71
2022/12/13 06:56:29;;;;;;;37.00;19.47;;;-5.40;99.90;;;;;;5096460;28;20031;-70
2022/12/13 06:58:55;;;;;;;34.67;19.33;;;-5.40;99.90;;;;;;5109584;28;20043;-71
2022/12/13 07:01:21;;;;;;;39.67;19.73;;;-5.40;99.90;;;;;;5102119;28;20451;-71
2022/12/13 07:03:46;;;;;;;37.10;19.77;;;-5.40;99.90;;;;;;5101925;28;20043;-70
2022/12/13 07:06:20;;;;;;;36.90;19.00;;;-5.40;99.90;;;;;;5108340;28;20052;-70
2022/12/13 07:08:51;;;;;;;34.47;18.47;;;-5.50;99.90;;;;;;5095128;28;20041;-70
2022/12/13 07:11:20;;;;;;;40.77;18.80;;;-5.50;99.90;;;;;;5107292;28;20395;-70
2022/12/13 07:13:46;;;;;;;37.33;18.47;;;-5.50;99.90;;;;;;5105041;28;20450;-72
2022/12/13 07:16:12;;;;;;;35.87;18.23;;;-5.50;99.90;;;;;;5102051;27;20118;-72
2022/12/13 07:18:38;;;;;;;36.40;19.60;;;-5.40;99.90;;;;;;5110077;28;20043;-71
2022/12/13 07:21:05;;;;;;;34.97;18.67;;;-5.40;99.90;;;;;;5122253;27;20035;-71
2022/12/13 07:23:31;;;;;;;36.43;19.67;;;-5.40;99.90;;;;;;5106219;28;20572;-71
2022/12/13 07:25:57;;;;;;;33.90;18.47;;;-5.40;99.90;;;;;;5094000;28;20032;-71
2022/12/13 07:28:22;;;;;;;35.53;18.73;;;-5.40;99.90;;;;;;5103323;27;20567;-70
2022/12/13 07:30:48;;;;;;;35.83;19.40;;;-5.40;99.90;;;;;;5103405;27;20024;-71
2022/12/13 07:33:14;;;;;;;33.93;18.57;;;-5.40;99.90;;;;;;5088972;28;20072;-70
2022/12/13 07:35:40;;;;;;;40.30;21.13;;;-5.40;99.90;;;;;;5115042;27;20031;-70
2022/12/13 07:38:07;;;;;;;31.30;18.47;;;-5.40;99.90;;;;;;5115433;27;20035;-71
2022/12/13 07:40:34;;;;;;;39.30;19.73;;;-5.40;99.90;;;;;;5116124;27;20039;-71
2022/12/13 07:42:59;;;;;;;36.57;19.57;;;-5.40;99.90;;;;;;5080272;28;20055;-70
2022/12/13 07:45:25;;;;;;;36.97;19.43;;;-5.40;99.90;;;;;;5096644;28;20421;-71
2022/12/13 07:47:51;;;;;;;40.53;21.57;;;-5.40;99.90;;;;;;5099756;28;20047;-70
2022/12/13 07:50:19;;;;;;;35.97;19.43;;;-5.40;99.90;;;;;;5110507;28;20047;-71
2022/12/13 07:52:46;;;;;;;39.53;20.60;;;-5.40;99.90;;;;;;5096658;27;20492;-71
2022/12/13 07:55:12;;;;;;;36.73;20.30;;;-5.40;99.90;;;;;;5114185;27;20110;-71
2022/12/13 07:57:37;;;;;;;36.47;19.80;;;-5.30;99.90;;;;;;5097640;28;20046;-71
2022/12/13 08:00:04;;;;;;;38.80;20.00;;;-5.30;99.90;;;;;;5106183;27;20504;-71
2022/12/13 08:02:29;;;;;;;37.30;20.53;;;-5.30;99.90;;;;;;5101436;27;20294;-71
2022/12/13 08:04:55;;;;;;;36.60;19.80;;;-5.30;99.90;;;;;;5109776;27;20104;-71
2022/12/13 08:07:20;;;;;;;35.70;19.23;;;-5.30;99.90;;;;;;5114528;27;20043;-71
2022/12/13 08:09:46;;;;;;;38.27;20.57;;;-5.30;99.90;;;;;;5108564;27;20446;-71
2022/12/13 08:12:11;;;;;;;39.57;19.57;;;-5.30;99.90;;;;;;5100115;27;20126;-71
2022/12/13 08:14:37;;;;;;;37.27;19.73;;;-5.20;99.90;;;;;;5105102;27;20122;-71
2022/12/13 08:17:02;;;;;;;37.70;20.27;;;-5.20;99.90;;;;;;5107054;28;20027;-71
2022/12/13 08:19:28;;;;;;;42.23;20.57;;;-5.20;99.90;;;;;;5108270;27;20031;-70
2022/12/13 08:21:55;;;;;;;39.67;19.67;;;-5.20;99.90;;;;;;5104037;28;20041;-71
2022/12/13 08:24:25;;;;;;;37.03;20.27;;;-5.10;99.90;;;;;;5111867;27;20039;-71
2022/12/13 08:26:50;;;;;;;36.47;20.23;;;-5.10;99.90;;;;;;5111956;27;20050;-71
2022/12/13 08:29:16;;;;;;;43.30;21.87;;;-5.00;99.90;;;;;;5114878;27;20031;-70
2022/12/13 08:31:42;;;;;;;40.80;21.47;;;-5.00;99.90;;;;;;5098017;27;20031;-71
2022/12/13 08:34:08;;;;;;;41.50;21.47;;;-4.90;99.90;;;;;;5121340;27;20066;-71
2022/12/13 08:36:33;;;;;;;38.47;20.93;;;-4.80;99.90;;;;;;5109035;27;20031;-71
2022/12/13 08:39:01;;;;;;;41.73;20.70;;;-4.80;99.90;;;;;;5095770;27;20039;-70
2022/12/13 08:41:27;;;;;;;43.13;23.30;;;-4.80;99.90;;;;;;5088707;27;20081;-71
2022/12/13 08:43:53;;;;;;;45.73;22.40;;;-4.70;99.90;;;;;;5108490;27;20031;-71
2022/12/13 08:46:18;;;;;;;53.47;23.63;;;-4.70;99.90;;;;;;5109019;27;20159;-71
2022/12/13 08:48:44;;;;;;;39.60;21.67;;;-4.60;99.90;;;;;;5103927;27;20036;-72
2022/12/13 08:51:13;;;;;;;40.50;22.80;;;-4.50;99.90;;;;;;5088719;27;20038;-72
2022/12/13 08:53:39;;;;;;;44.33;22.83;;;-4.50;99.90;;;;;;5088676;27;20110;-72
2022/12/13 08:56:09;;;;;;;43.30;22.77;;;-4.40;99.90;;;;;;5104709;28;20146;-72
2022/12/13 08:58:35;;;;;;;43.60;22.97;;;-4.40;99.90;;;;;;5105100;27;20039;-72
2022/12/13 09:01:05;;;;;;;44.43;23.10;;;-4.30;99.90;;;;;;5097407;27;20528;-72
2022/12/13 09:03:30;;;;;;;41.30;22.77;;;-4.30;99.90;;;;;;5108306;27;20493;-72
2022/12/13 09:05:56;;;;;;;39.43;22.43;;;-4.20;99.90;;;;;;5100194;27;20118;-71
2022/12/13 09:08:22;;;;;;;48.03;23.80;;;-4.20;99.90;;;;;;5107040;27;20036;-71
2022/12/13 09:10:56;;;;;;;45.83;23.37;;;-4.10;99.90;;;;;;5112618;27;20396;-71
2022/12/13 09:13:21;;;;;;;44.27;22.90;;;-4.10;99.90;;;;;;5105044;27;20049;-71
2022/12/13 09:15:47;;;;;;;50.87;26.03;;;-4.00;99.90;;;;;;5104422;28;20036;-72
2022/12/13 09:18:13;;;;;;;45.07;23.63;;;-4.00;99.90;;;;;;5094070;27;20099;-72
2022/12/13 09:20:40;;;;;;;48.60;23.87;;;-4.00;99.90;;;;;;5099272;27;20403;-72
2022/12/13 09:23:06;;;;;;;44.03;23.33;;;-3.90;99.90;;;;;;5105797;27;20382;-72
2022/12/13 09:25:32;;;;;;;44.27;23.03;;;-3.90;99.90;;;;;;5108940;28;20088;-73
2022/12/13 09:28:00;;;;;;;44.67;23.53;;;-3.80;99.90;;;;;;5112845;27;20035;-73
2022/12/13 09:30:26;;;;;;;42.07;23.30;;;-3.80;99.90;;;;;;5107207;27;20400;-72
2022/12/13 09:32:52;;;;;;;43.30;24.17;;;-3.70;99.90;;;;;;5111368;27;20080;-72
2022/12/13 09:35:18;;;;;;;44.57;23.53;;;-3.70;99.90;;;;;;5105880;28;20039;-73
2022/12/13 09:37:43;;;;;;;47.80;23.80;;;-3.60;99.90;;;;;;5104772;28;20058;-71
2022/12/13 09:40:17;;;;;;;42.23;23.27;;;-3.50;99.90;;;;;;5097636;28;20093;-73
2022/12/13 09:42:48;;;;;;;45.73;24.97;;;-3.50;99.90;;;;;;5093303;28;20035;-73
2022/12/13 09:45:13;;;;;;;43.97;23.90;;;-3.40;99.90;;;;;;5112072;27;20492;-72
2022/12/13 09:47:41;;;;;;;47.57;24.53;;;-3.40;99.90;;;;;;5093826;27;20047;-73
2022/12/13 09:50:18;;;;;;;46.63;24.67;;;-3.30;99.90;;;;;;5112336;27;20065;-73
2022/12/13 09:52:45;;;;;;;45.87;24.93;;;-3.30;99.90;;;;;;5095602;28;20032;-73
2022/12/13 09:55:22;;;;;;;49.47;24.77;;;-3.20;99.90;;;;;;5095562;27;20063;-73
2022/12/13 09:57:49;;;;;;;47.57;24.60;;;-3.10;99.90;;;;;;5121590;27;20113;-73
2022/12/13 10:00:17;;;;;;;42.23;23.93;;;-3.00;99.90;;;;;;5106453;27;20370;-73
2022/12/13 10:02:44;;;;;;;52.37;25.73;;;-2.90;99.90;;;;;;5114328;27;20038;-73
2022/12/13 10:05:16;;;;;;;48.47;25.57;;;-2.90;99.90;;;;;;5111234;27;20414;-73
2022/12/13 10:07:42;;;;;;;50.40;25.37;;;-2.80;99.90;;;;;;5098515;27;20168;-73
2022/12/13 10:10:13;;;;;;;46.80;25.87;;;-2.80;99.90;;;;;;5106249;28;20134;-75
2022/12/13 10:12:41;;;;;;;48.87;25.00;;;-2.70;99.90;;;;;;5111472;28;20491;-74
2022/12/13 10:15:09;;;;;;;47.53;25.63;;;-2.70;99.90;;;;;;5075350;28;20039;-75
2022/12/13 10:17:39;;;;;;;45.57;24.87;;;-2.60;99.90;;;;;;5096420;27;20106;-74
2022/12/13 10:20:12;;;;;;;47.00;24.37;;;-2.60;99.90;;;;;;5113172;27;20034;-74
2022/12/13 10:22:37;;;;;;;45.53;24.33;;;-2.50;99.90;;;;;;5113560;28;20043;-74
2022/12/13 10:25:04;;;;;;;45.47;25.50;;;-2.50;99.90;;;;;;5093152;28;20210;-74
2022/12/13 10:27:39;;;;;;;51.67;26.27;;;-2.50;99.90;;;;;;5093191;28;20090;-74
2022/12/13 10:30:13;;;;;;;46.10;25.13;;;-2.40;99.90;;;;;;5093467;28;20047;-74
2022/12/13 10:32:58;;;;;;;49.47;26.47;;;-2.40;99.90;;;;;;5093364;28;20043;-74
2022/12/13 10:35:37;;;;;;;48.80;25.67;;;-2.30;99.90;;;;;;5093722;28;20624;-74
2022/12/13 10:38:25;;;;;;;51.13;25.50;;;-2.30;99.90;;;;;;5093064;28;20039;-75
2022/12/13 10:40:51;;;;;;;50.67;26.60;;;-2.20;99.90;;;;;;5108665;28;20400;-74
2022/12/13 10:43:19;;;;;;;52.63;26.77;;;-2.10;99.90;;;;;;5095040;28;20043;-74
2022/12/13 10:46:18;;;;;;;49.67;24.77;;;-2.00;99.90;;;;;;5093625;28;20058;-74
2022/12/13 10:48:50;;;;;;;52.17;26.60;;;-1.90;99.90;;;;;;5093212;28;20044;-74
2022/12/13 10:51:19;;;;;;;43.43;24.53;;;-1.80;99.90;;;;;;5093136;28;20040;-74
2022/12/13 10:53:48;;;;;;;47.50;24.87;;;-1.80;99.90;;;;;;5112348;28;20061;-74
2022/12/13 10:56:16;;;;;;;46.60;25.03;;;-1.70;99.90;;;;;;5101789;28;20036;-74
2022/12/13 10:58:45;;;;;;;49.50;25.37;;;-1.60;99.90;;;;;;5092886;28;20556;-74
2022/12/13 11:01:21;;;;;;;47.60;24.73;;;-1.60;99.90;;;;;;5093296;28;20040;-74
2022/12/13 11:04:23;;;;;;;42.53;23.93;;;-1.50;99.90;;;;;;5093214;28;20048;-73
2022/12/13 11:06:48;;;;;;;44.73;24.20;;;-1.50;99.90;;;;;;5093163;28;20118;-73
2022/12/13 11:09:15;;;;;;;41.70;24.10;;;-1.40;99.90;;;;;;5092970;28;20177;-73
2022/12/13 11:11:43;;;;;;;44.00;23.67;;;-1.40;99.90;;;;;;5096707;28;20065;-74
2022/12/13 11:14:17;;;;;;;44.53;24.00;;;-1.30;99.90;;;;;;5088751;27;20047;-74
2022/12/13 11:16:48;;;;;;;45.63;24.07;;;-1.20;99.90;;;;;;5117350;27;20038;-74
2022/12/13 11:19:33;;;;;;;42.43;22.40;;;-1.20;99.90;;;;;;5105274;28;20396;-74
2022/12/13 11:22:00;;;;;;;40.93;22.77;;;-1.10;99.90;;;;;;5109009;27;20443;-74
2022/12/13 11:24:50;;;;;;;37.83;21.67;;;-1.10;99.90;;;;;;5102765;27;20034;-75
2022/12/13 11:27:43;;;;;;;42.77;22.83;;;-1.00;99.90;;;;;;5121161;27;20519;-75
2022/12/13 11:30:18;;;;;;;40.53;22.27;;;-1.00;99.90;;;;;;5101273;27;20048;-75
2022/12/13 11:32:55;;;;;;;40.93;22.17;;;-0.90;99.90;;;;;;5104413;27;20035;-76
2022/12/13 11:35:30;;;;;;;40.47;22.50;;;-0.90;99.90;;;;;;5105080;27;20035;-75
2022/12/13 11:38:09;;;;;;;44.23;22.93;;;-0.80;99.90;;;;;;5104832;27;20038;-74
2022/12/13 11:40:48;;;;;;;38.43;22.20;;;-0.70;99.90;;;;;;5110987;27;20034;-74
2022/12/13 11:43:33;;;;;;;40.97;22.90;;;-0.70;99.90;;;;;;5114402;27;20046;-75
2022/12/13 11:46:04;;;;;;;38.77;21.77;;;-0.60;99.90;;;;;;5115981;27;20437;-75
2022/12/13 11:48:50;;;;;;;38.53;21.53;;;-0.50;99.90;;;;;;5113607;27;20437;-73
2022/12/13 11:51:39;;;;;;;38.03;20.73;;;-0.50;99.90;;;;;;5107252;27;20039;-73
2022/12/13 11:54:31;;;;;;;38.70;20.80;;;-0.40;99.90;;;;;;5102024;27;20404;-73
2022/12/13 11:57:03;;;;;;;37.37;19.77;;;-0.30;99.90;;;;;;5066509;28;20134;-74
2022/12/13 11:59:45;;;;;;;34.13;19.57;;;-0.20;99.90;;;;;;5093073;27;20061;-74
2022/12/13 12:02:15;;;;;;;31.23;18.67;;;-0.10;99.90;;;;;;5112236;27;20643;-75
2022/12/13 12:04:54;;;;;;;33.93;18.53;;;-0.10;99.90;;;;;;5113261;27;20034;-75
2022/12/13 12:07:28;;;;;;;35.13;19.50;;;0.00;99.90;;;;;;5110282;27;20034;-75
2022/12/13 12:10:02;;;;;;;31.70;18.20;;;0.10;99.90;;;;;;5104609;28;20435;-76
2022/12/13 12:12:35;;;;;;;31.00;17.75;;;0.10;99.90;;;;;;5112536;27;20073;-76
2022/12/13 12:15:06;;;;;;;34.92;18.60;;;0.20;99.90;;;;;;5105254;28;20128;-75
2022/12/13 12:17:32;;;;;;;32.57;17.57;;;0.30;99.90;;;;;;5112106;27;20059;-76
2022/12/13 12:19:58;;;;;;;29.80;16.63;;;0.40;99.90;;;;;;5115114;27;20042;-75
2022/12/13 12:22:43;;;;;;;27.63;16.50;;;0.50;99.90;;;;;;5114950;27;20042;-75
2022/12/13 12:25:47;;;;;;;29.03;16.30;;;0.60;99.90;;;;;;5106796;27;20099;-77
2022/12/13 12:28:44;;;;;;;25.63;15.73;;;0.70;99.90;;;;;;5100733;28;20039;-77
2022/12/13 12:31:28;;;;;;;25.20;14.67;;;0.80;99.90;;;;;;5092769;27;20684;-78
2022/12/13 12:34:28;;;;;;;23.88;14.05;;;1.00;99.90;;;;;;5115155;27;20043;-77
2022/12/13 12:37:39;;;;;;;25.10;13.97;;;1.20;99.90;;;;;;5102145;27;20035;-77
2022/12/13 12:40:33;;;;;;;22.50;13.17;;;1.40;99.90;;;;;;5093574;28;20449;-78
2022/12/13 12:43:19;;;;;;;21.88;12.68;;;1.60;99.90;;;;;;5108850;28;20063;-76
2022/12/13 12:46:30;;;;;;;20.23;12.83;;;1.90;99.90;;;;;;5107310;27;20074;-78
2022/12/13 12:49:22;;;;;;;22.03;13.33;;;2.20;99.90;;;;;;5115186;27;20046;-77